Time;durP1;ratioP1;P1;durP2;ratioP2;P2;SDS_P1;SDS_P2;PMS_P1;PMS_P2;Temp;Humidity;BMP_temperature;BMP_pressure;BME280_temperature;BME280_humidity;BME280_pressure;Samples;Min_cycle;Max_cycle;Signal;HPM_P1;HPM_P2
2023/03/13 00:01:45;;;;;;;;;;;21.20;36.40;;;;;;5070754;28;20489;-73
2023/03/13 00:04:11;;;;;;;;;;;21.20;36.40;;;;;;5071223;28;19917;-74
2023/03/13 00:06:38;;;;;;;;;;;21.20;36.40;;;;;;5071321;28;20256;-73
2023/03/13 00:09:05;;;;;;;;;;;21.20;36.40;;;;;;5071313;28;19916;-73
2023/03/13 00:11:30;;;;;;;;;;;21.20;36.40;;;;;;5072584;28;19917;-73
2023/03/13 00:13:56;;;;;;;;;;;21.20;36.40;;;;;;5072061;28;19916;-72
2023/03/13 00:16:22;;;;;;;;;;;21.20;36.40;;;;;;5071274;28;19916;-73
2023/03/13 00:18:50;;;;;;;;;;;21.20;36.40;;;;;;5071160;28;20279;-73
2023/03/13 00:21:19;;;;;;;;;;;21.20;36.40;;;;;;5070929;28;19924;-73
2023/03/13 00:23:45;;;;;;;;;;;21.20;36.50;;;;;;5074803;28;19917;-73
2023/03/13 00:26:11;;;;;;;;;;;21.20;36.40;;;;;;5076610;28;19916;-72
2023/03/13 00:28:38;;;;;;;;;;;21.30;36.50;;;;;;5075277;28;19921;-72
2023/03/13 00:31:05;;;;;;;;;;;21.20;36.50;;;;;;5075028;28;19916;-72
2023/03/13 00:33:32;;;;;;;;;;;21.20;36.50;;;;;;5074963;28;19916;-72
2023/03/13 00:35:58;;;;;;;;;;;21.20;36.50;;;;;;5076023;28;20409;-72
2023/03/13 00:38:24;;;;;;;;;;;21.20;36.50;;;;;;5074824;28;20387;-73
2023/03/13 00:40:57;;;;;;;;;;;21.20;36.50;;;;;;5074612;28;19920;-73
2023/03/13 00:43:25;;;;;;;;;;;21.20;36.50;;;;;;5074719;28;19999;-72
2023/03/13 00:45:50;;;;;;;;;;;21.20;36.50;;;;;;5074483;28;19947;-72
2023/03/13 00:48:16;;;;;;;;;;;21.20;36.60;;;;;;5074492;28;19917;-73
2023/03/13 00:50:41;;;;;;;;;;;21.20;36.60;;;;;;5075671;28;19923;-72
2023/03/13 00:53:07;;;;;;;;;;;21.20;36.60;;;;;;5075630;28;19924;-72
2023/03/13 00:55:32;;;;;;;;;;;21.20;36.60;;;;;;5074157;28;19924;-73
2023/03/13 00:57:58;;;;;;;;;;;21.00;36.50;;;;;;5074227;28;19916;-72
2023/03/13 01:00:24;;;;;;;;;;;21.20;36.60;;;;;;5092176;28;20007;-72
2023/03/13 01:02:49;;;;;;;;;;;21.20;36.70;;;;;;5095822;28;20015;-72
2023/03/13 01:05:15;;;;;;;;;;;21.20;37.40;;;;;;5077693;28;19923;-73
2023/03/13 01:07:40;;;;;;;;;;;21.20;36.70;;;;;;5077782;28;19920;-72
2023/03/13 01:10:06;;;;;;;;;;;21.20;36.70;;;;;;5077603;28;19916;-72
2023/03/13 01:12:32;;;;;;;;;;;21.20;36.70;;;;;;5077235;28;19969;-72
2023/03/13 01:14:57;;;;;;;;;;;21.20;36.70;;;;;;5095314;28;19920;-72
2023/03/13 01:17:23;;;;;;;;;;;21.20;36.70;;;;;;5094477;28;19916;-74
2023/03/13 01:19:48;;;;;;;;;;;21.20;36.80;;;;;;5095183;28;19920;-73
2023/03/13 01:22:14;;;;;;;;;;;21.10;36.90;;;;;;5077439;28;19926;-74
2023/03/13 01:24:39;;;;;;;;;;;21.10;37.00;;;;;;5093947;28;19939;-72
2023/03/13 01:27:08;;;;;;;;;;;21.00;37.10;;;;;;5076939;28;19919;-72
2023/03/13 01:29:33;;;;;;;;;;;21.00;37.10;;;;;;5094116;28;19923;-72
2023/03/13 01:31:59;;;;;;;;;;;21.00;37.10;;;;;;5076830;28;20408;-72
2023/03/13 01:34:24;;;;;;;;;;;21.10;37.10;;;;;;5076533;28;19916;-72
2023/03/13 01:36:51;;;;;;;;;;;21.10;37.10;;;;;;5094976;28;19916;-73
2023/03/13 01:39:16;;;;;;;;;;;21.10;37.10;;;;;;5077462;28;19916;-72
2023/03/13 01:41:42;;;;;;;;;;;21.10;37.00;;;;;;5077418;28;19916;-72
2023/03/13 01:44:26;;;;;;;;;;;21.20;37.00;;;;;;5077031;28;20376;-72
2023/03/13 01:46:51;;;;;;;;;;;21.20;37.00;;;;;;5076858;28;19923;-72
2023/03/13 01:49:19;;;;;;;;;;;21.20;37.00;;;;;;5093805;28;20248;-73
2023/03/13 01:51:52;;;;;;;;;;;21.20;37.00;;;;;;5094958;28;19963;-72
2023/03/13 01:54:22;;;;;;;;;;;21.20;37.00;;;;;;5076591;28;20367;-72
2023/03/13 01:59:27;;;;;;;;;;;21.20;37.00;;;;;;5110352;27;19908;-72
2023/03/13 02:01:55;;;;;;;;;;;21.20;36.90;;;;;;5108936;28;19961;-73
2023/03/13 02:04:22;;;;;;;;;;;21.30;37.10;;;;;;5110580;28;19950;-72
2023/03/13 02:06:50;;;;;;;;;;;21.20;37.00;;;;;;5108901;28;19974;-72
2023/03/13 02:09:19;;;;;;;;;;;21.20;37.00;;;;;;5108889;28;19915;-72
2023/03/13 02:11:47;;;;;;;;;;;21.20;37.00;;;;;;5108782;28;19916;-72
2023/03/13 02:14:14;;;;;;;;;;;21.20;37.00;;;;;;5110104;28;20244;-72
2023/03/13 02:16:39;;;;;;;;;;;21.20;37.10;;;;;;5108690;28;20430;-72
2023/03/13 02:19:15;;;;;;;;;;;21.20;37.10;;;;;;5143024;27;20018;-72
2023/03/13 02:21:47;;;;;;;;;;;21.20;37.10;;;;;;5108873;28;20085;-73
2023/03/13 02:26:55;;;;;;;;;;;21.20;37.10;;;;;;5130972;27;20007;-71
2023/03/13 02:29:22;;;;;;;;;;;21.20;37.10;;;;;;5129551;28;19963;-72
2023/03/13 02:31:47;;;;;;;;;;;21.20;37.20;;;;;;5129560;28;19920;-71
2023/03/13 02:34:15;;;;;;;;;;;21.20;37.20;;;;;;5129384;28;19916;-71
2023/03/13 02:36:41;;;;;;;;;;;21.20;37.30;;;;;;5129654;28;19964;-71
2023/03/13 02:39:06;;;;;;;;;;;21.20;37.30;;;;;;5129955;28;19916;-71
2023/03/13 02:41:33;;;;;;;;;;;21.20;37.40;;;;;;5130020;28;19994;-71
2023/03/13 02:43:58;;;;;;;;;;;21.20;37.40;;;;;;5129438;28;19927;-71
2023/03/13 02:46:24;;;;;;;;;;;21.20;37.40;;;;;;5129352;28;19928;-71
2023/03/13 02:48:52;;;;;;;;;;;21.20;37.40;;;;;;5129156;28;19923;-71
2023/03/13 02:51:23;;;;;;;;;;;21.20;37.40;;;;;;5129465;28;19926;-71
2023/03/13 02:53:49;;;;;;;;;;;21.20;37.50;;;;;;5129097;28;20381;-71
2023/03/13 02:56:16;;;;;;;;;;;21.20;37.50;;;;;;5129044;28;19974;-73
2023/03/13 02:58:42;;;;;;;;;;;21.10;37.50;;;;;;5130452;27;19915;-71
2023/03/13 03:01:07;;;;;;;;;;;21.20;37.50;;;;;;5131136;27;19919;-72
2023/03/13 03:03:35;;;;;;;;;;;21.20;37.60;;;;;;5131858;27;19916;-71
2023/03/13 03:06:00;;;;;;;;;;;21.20;37.60;;;;;;5129260;28;19919;-71
2023/03/13 03:08:33;;;;;;;;;;;21.20;37.60;;;;;;5129656;28;19916;-71
2023/03/13 03:10:59;;;;;;;;;;;21.20;37.60;;;;;;5129657;28;19922;-72
2023/03/13 03:13:24;;;;;;;;;;;21.20;37.50;;;;;;5129476;28;19916;-71
2023/03/13 03:15:50;;;;;;;;;;;21.20;37.50;;;;;;5128654;28;20374;-73
2023/03/13 03:18:21;;;;;;;;;;;21.30;37.50;;;;;;5129999;27;19919;-72
2023/03/13 03:20:47;;;;;;;;;;;21.30;37.40;;;;;;5128405;28;20002;-72
2023/03/13 03:23:12;;;;;;;;;;;21.40;37.50;;;;;;5128874;28;20014;-73
2023/03/13 03:25:38;;;;;;;;;;;21.40;37.40;;;;;;5129509;27;19928;-72
2023/03/13 03:28:04;;;;;;;;;;;21.50;37.40;;;;;;5129805;27;19916;-73
2023/03/13 03:30:29;;;;;;;;;;;21.50;37.30;;;;;;5128662;28;19922;-72
2023/03/13 03:32:55;;;;;;;;;;;21.50;37.30;;;;;;5128321;28;19915;-71
2023/03/13 03:35:20;;;;;;;;;;;21.50;37.20;;;;;;5129485;28;19915;-72
2023/03/13 03:37:46;;;;;;;;;;;21.50;37.20;;;;;;5117289;28;19915;-72
2023/03/13 03:40:11;;;;;;;;;;;21.50;37.20;;;;;;5115922;28;20252;-72
2023/03/13 03:42:37;;;;;;;;;;;21.60;37.30;;;;;;5115891;28;19935;-72
2023/03/13 03:45:02;;;;;;;;;;;21.60;37.30;;;;;;5114450;28;20007;-71
2023/03/13 03:47:28;;;;;;;;;;;21.60;37.30;;;;;;5114403;28;20027;-71
2023/03/13 03:49:54;;;;;;;;;;;21.60;37.30;;;;;;5114257;28;19916;-71
2023/03/13 03:52:19;;;;;;;;;;;21.60;37.40;;;;;;5114548;28;19919;-73
2023/03/13 03:54:45;;;;;;;;;;;21.50;37.40;;;;;;5109686;28;20393;-72
2023/03/13 03:57:10;;;;;;;;;;;21.50;37.40;;;;;;5093837;28;19916;-73
2023/03/13 03:59:36;;;;;;;;;;;21.50;37.50;;;;;;5095175;28;19924;-72
2023/03/13 04:02:02;;;;;;;;;;;21.50;37.60;;;;;;5094972;28;19916;-72
2023/03/13 04:04:27;;;;;;;;;;;21.50;37.60;;;;;;5093657;28;19923;-72
2023/03/13 04:06:53;;;;;;;;;;;21.40;37.60;;;;;;5093567;28;19945;-72
2023/03/13 04:09:18;;;;;;;;;;;21.40;37.70;;;;;;5093554;28;19977;-74
2023/03/13 04:11:44;;;;;;;;;;;21.40;37.70;;;;;;5094829;28;19916;-72
2023/03/13 04:14:09;;;;;;;;;;;21.40;37.70;;;;;;5093528;28;19916;-71
2023/03/13 04:16:35;;;;;;;;;;;21.40;37.80;;;;;;5094627;28;19916;-72
2023/03/13 04:19:01;;;;;;;;;;;21.40;37.80;;;;;;5093755;28;19931;-73
2023/03/13 04:21:26;;;;;;;;;;;21.20;37.80;;;;;;5093283;28;19916;-73
2023/03/13 04:23:52;;;;;;;;;;;21.40;37.90;;;;;;5093297;28;20025;-74
2023/03/13 04:26:17;;;;;;;;;;;21.30;37.90;;;;;;5092943;28;19927;-72
2023/03/13 04:28:43;;;;;;;;;;;21.30;38.00;;;;;;5093506;28;20366;-73
2023/03/13 04:31:08;;;;;;;;;;;21.30;38.10;;;;;;5093152;28;20266;-73
2023/03/13 04:33:35;;;;;;;;;;;21.30;38.10;;;;;;5093402;28;20007;-72
2023/03/13 04:36:01;;;;;;;;;;;21.30;38.20;;;;;;5094386;28;19916;-73
2023/03/13 04:38:26;;;;;;;;;;;21.30;38.20;;;;;;5092841;28;19923;-73
2023/03/13 04:40:52;;;;;;;;;;;21.30;38.20;;;;;;5092933;28;19923;-73
2023/03/13 04:43:17;;;;;;;;;;;21.30;38.30;;;;;;5092859;28;19969;-72
2023/03/13 04:45:43;;;;;;;;;;;21.30;38.30;;;;;;5092944;28;19928;-73
2023/03/13 04:48:08;;;;;;;;;;;21.30;39.20;;;;;;5092282;28;19916;-73
2023/03/13 04:50:34;;;;;;;;;;;21.30;38.30;;;;;;5092845;28;20351;-73
2023/03/13 04:52:59;;;;;;;;;;;21.30;38.30;;;;;;5093995;28;19916;-73
2023/03/13 04:55:25;;;;;;;;;;;21.30;38.40;;;;;;5103251;28;20366;-73
2023/03/13 04:57:50;;;;;;;;;;;21.30;38.50;;;;;;5113264;28;19915;-72
2023/03/13 05:00:16;;;;;;;;;;;21.30;38.40;;;;;;5113009;28;20393;-73
2023/03/13 05:02:42;;;;;;;;;;;21.30;38.50;;;;;;5112795;28;19920;-73
2023/03/13 05:05:07;;;;;;;;;;;21.30;38.50;;;;;;5113051;28;19949;-74
2023/03/13 05:07:33;;;;;;;;;;;21.30;38.60;;;;;;5112795;28;19916;-72
2023/03/13 05:10:05;;;;;;;;;;;21.30;38.60;;;;;;5113019;28;19916;-73
2023/03/13 05:12:30;;;;;;;;;;;21.30;38.70;;;;;;5112650;28;20287;-73
2023/03/13 05:14:56;;;;;;;;;;;21.30;38.60;;;;;;5112664;28;19916;-73
2023/03/13 05:17:21;;;;;;;;;;;21.30;38.60;;;;;;5112952;28;19922;-74
2023/03/13 05:19:47;;;;;;;;;;;21.30;38.80;;;;;;5112971;28;20677;-73
2023/03/13 05:22:12;;;;;;;;;;;21.30;38.80;;;;;;5112525;28;20343;-73
2023/03/13 05:24:38;;;;;;;;;;;21.30;38.70;;;;;;5112506;28;19927;-73
2023/03/13 05:27:03;;;;;;;;;;;21.30;38.80;;;;;;5112806;28;20266;-73
2023/03/13 05:29:29;;;;;;;;;;;21.30;38.80;;;;;;5112666;28;20422;-73
2023/03/13 05:31:54;;;;;;;;;;;21.30;39.60;;;;;;5113788;28;20367;-73
2023/03/13 05:34:20;;;;;;;;;;;21.30;38.90;;;;;;5112551;28;19922;-73
2023/03/13 05:36:45;;;;;;;;;;;21.20;38.90;;;;;;5112296;28;19923;-73
2023/03/13 05:39:11;;;;;;;;;;;21.20;38.90;;;;;;5112219;28;19916;-73
2023/03/13 05:41:36;;;;;;;;;;;21.20;38.90;;;;;;5112223;28;19968;-73
2023/03/13 05:44:02;;;;;;;;;;;21.20;39.00;;;;;;5112143;28;19923;-73
2023/03/13 05:46:28;;;;;;;;;;;21.20;39.10;;;;;;5112053;28;19932;-73
2023/03/13 05:48:53;;;;;;;;;;;21.20;39.00;;;;;;5113324;28;19923;-73
2023/03/13 05:51:19;;;;;;;;;;;21.20;39.10;;;;;;5112370;28;20290;-73
2023/03/13 05:53:44;;;;;;;;;;;21.30;39.10;;;;;;5111993;28;19916;-73
2023/03/13 05:56:09;;;;;;;;;;;21.20;39.10;;;;;;5095150;28;19916;-73
2023/03/13 05:58:35;;;;;;;;;;;21.30;39.10;;;;;;5092880;28;19923;-72
2023/03/13 06:01:08;;;;;;;;;;;21.20;39.10;;;;;;5091226;28;19922;-72
2023/03/13 06:03:34;;;;;;;;;;;21.20;39.10;;;;;;5091563;28;19916;-72
2023/03/13 06:05:59;;;;;;;;;;;21.20;39.30;;;;;;5091471;28;20007;-73
2023/03/13 06:08:25;;;;;;;;;;;21.20;39.30;;;;;;5074954;28;20336;-73
2023/03/13 06:10:50;;;;;;;;;;;21.20;39.30;;;;;;5091301;28;20022;-72
2023/03/13 06:13:16;;;;;;;;;;;21.20;39.40;;;;;;5092719;28;19916;-73
2023/03/13 06:15:42;;;;;;;;;;;21.20;39.40;;;;;;5091571;28;19916;-73
2023/03/13 06:18:07;;;;;;;;;;;21.20;39.50;;;;;;5091366;28;20256;-73
2023/03/13 06:20:33;;;;;;;;;;;21.20;39.50;;;;;;5091360;28;19969;-73
2023/03/13 06:22:58;;;;;;;;;;;21.20;39.60;;;;;;5091322;28;19972;-71
2023/03/13 06:25:24;;;;;;;;;;;21.20;39.60;;;;;;5091075;28;20020;-72
2023/03/13 06:27:49;;;;;;;;;;;21.20;39.70;;;;;;5091497;28;20271;-73
2023/03/13 06:30:15;;;;;;;;;;;21.20;39.80;;;;;;5091450;28;19916;-72
2023/03/13 06:32:41;;;;;;;;;;;21.20;39.90;;;;;;5091462;28;20342;-74
2023/03/13 06:35:06;;;;;;;;;;;21.20;39.90;;;;;;5091164;28;20276;-74
2023/03/13 06:37:32;;;;;;;;;;;21.20;40.00;;;;;;5092282;28;20011;-71
2023/03/13 06:39:58;;;;;;;;;;;21.20;41.70;;;;;;5092314;28;19923;-69
2023/03/13 06:42:23;;;;;;;;;;;21.10;42.70;;;;;;5074124;28;19951;-74
2023/03/13 06:44:49;;;;;;;;;;;21.00;42.70;;;;;;5093671;28;19924;-72
2023/03/13 06:47:15;;;;;;;;;;;21.00;44.10;;;;;;5093805;28;20327;-74
2023/03/13 06:49:40;;;;;;;;;;;20.90;44.40;;;;;;5091352;28;19973;-74
2023/03/13 06:52:06;;;;;;;;;;;21.00;43.90;;;;;;5103972;28;20367;-70
2023/03/13 06:54:31;;;;;;;;;;;21.10;45.30;;;;;;5101990;28;19924;-73
2023/03/13 06:56:57;;;;;;;;;;;21.10;44.40;;;;;;5101591;28;19916;-72
2023/03/13 06:59:22;;;;;;;;;;;21.20;44.70;;;;;;5106511;28;20010;-73
2023/03/13 07:01:48;;;;;;;;;;;21.30;44.40;;;;;;5108474;28;19920;-72
2023/03/13 07:04:13;;;;;;;;;;;21.30;44.90;;;;;;5100192;28;19923;-72
2023/03/13 07:06:39;;;;;;;;;;;21.40;44.90;;;;;;5091076;28;19920;-74
2023/03/13 07:09:05;;;;;;;;;;;21.40;44.90;;;;;;5095175;28;19917;-74
2023/03/13 07:11:30;;;;;;;;;;;21.40;44.20;;;;;;5085981;28;19916;-74
2023/03/13 07:13:56;;;;;;;;;;;21.50;44.10;;;;;;5086507;28;19923;-74
2023/03/13 07:16:21;;;;;;;;;;;21.50;43.80;;;;;;5091899;28;19927;-75
2023/03/13 07:18:47;;;;;;;;;;;21.50;43.60;;;;;;5091066;28;19924;-70
2023/03/13 07:21:13;;;;;;;;;;;21.60;43.50;;;;;;5092349;28;19931;-72
2023/03/13 07:23:39;;;;;;;;;;;21.60;43.90;;;;;;5087674;28;19984;-71
2023/03/13 07:26:06;;;;;;;;;;;21.60;43.80;;;;;;5090513;28;19931;-72
2023/03/13 07:28:31;;;;;;;;;;;21.50;43.80;;;;;;5088738;28;19920;-71
2023/03/13 07:33:46;;;;;;;;;;;21.40;44.10;;;;;;5078875;27;19942;-75
2023/03/13 07:36:12;;;;;;;;;;;21.40;44.20;;;;;;5072305;28;19925;-75
2023/03/13 07:38:38;;;;;;;;;;;21.40;44.00;;;;;;5089569;28;20022;-75
2023/03/13 07:41:04;;;;;;;;;;;21.40;44.00;;;;;;5109372;27;20350;-77
2023/03/13 07:43:30;;;;;;;;;;;21.50;43.90;;;;;;5077513;28;19924;-74
2023/03/13 07:48:36;;;;;;;;;;;21.50;44.10;;;;;;5083760;27;1895668;-78
2023/03/13 07:51:02;;;;;;;;;;;21.40;44.90;;;;;;5111145;27;19927;-76
2023/03/13 07:53:28;;;;;;;;;;;21.40;45.40;;;;;;5113720;27;20018;-84
2023/03/13 07:55:55;;;;;;;;;;;21.30;45.00;;;;;;5114078;27;20601;-77
2023/03/13 07:58:21;;;;;;;;;;;21.30;44.70;;;;;;5117012;27;19923;-79
2023/03/13 08:00:47;;;;;;;;;;;21.40;44.70;;;;;;5113145;27;19931;-74
2023/03/13 08:03:13;;;;;;;;;;;21.40;44.90;;;;;;5114003;27;19953;-67
2023/03/13 08:05:38;;;;;;;;;;;21.50;45.20;;;;;;5118375;27;19935;-74
2023/03/13 08:08:04;;;;;;;;;;;21.50;44.50;;;;;;5130245;27;19927;-69
2023/03/13 08:10:30;;;;;;;;;;;21.60;44.50;;;;;;5130134;27;19962;-70
2023/03/13 08:12:55;;;;;;;;;;;21.60;44.40;;;;;;5133421;27;20366;-72
2023/03/13 08:15:24;;;;;;;;;;;21.70;44.60;;;;;;5113969;27;19934;-70
2023/03/13 08:17:51;;;;;;;;;;;21.80;44.70;;;;;;5107544;27;19923;-67
2023/03/13 08:20:17;;;;;;;;;;;21.90;44.70;;;;;;5112516;27;19924;-68
2023/03/13 08:22:45;;;;;;;;;;;21.90;44.50;;;;;;5113937;27;19934;-72
2023/03/13 08:25:12;;;;;;;;;;;22.00;44.50;;;;;;5128268;27;20386;-75
2023/03/13 08:27:41;;;;;;;;;;;22.10;44.60;;;;;;5113095;27;19938;-73
2023/03/13 08:30:06;;;;;;;;;;;22.10;44.60;;;;;;5110900;27;20439;-78
2023/03/13 08:32:32;;;;;;;;;;;22.10;44.60;;;;;;5115380;27;19923;-76
2023/03/13 08:34:58;;;;;;;;;;;22.00;44.50;;;;;;5111355;27;20018;-75
2023/03/13 08:37:26;;;;;;;;;;;22.00;44.50;;;;;;5113455;27;19927;-75
2023/03/13 08:39:55;;;;;;;;;;;22.00;44.60;;;;;;5128219;27;19923;-76
2023/03/13 08:42:20;;;;;;;;;;;22.00;44.80;;;;;;5113613;27;19927;-76
2023/03/13 08:44:46;;;;;;;;;;;21.90;45.10;;;;;;5133916;27;19923;-69
2023/03/13 08:47:11;;;;;;;;;;;21.80;45.10;;;;;;5111208;27;19939;-68
2023/03/13 08:49:37;;;;;;;;;;;21.70;45.30;;;;;;5134111;27;19924;-68
2023/03/13 08:52:03;;;;;;;;;;;21.70;45.80;;;;;;5114702;27;20251;-70
2023/03/13 08:54:29;;;;;;;;;;;21.60;45.80;;;;;;5130633;27;19934;-82
2023/03/13 08:56:54;;;;;;;;;;;21.60;45.80;;;;;;5112752;27;19928;-73
2023/03/13 08:59:23;;;;;;;;;;;21.60;46.30;;;;;;5103103;27;19939;-72
2023/03/13 09:01:48;;;;;;;;;;;21.60;46.50;;;;;;5113364;27;19928;-76
2023/03/13 09:04:18;;;;;;;;;;;21.60;46.50;;;;;;5098121;27;20500;-75
2023/03/13 09:06:43;;;;;;;;;;;21.60;46.50;;;;;;5095079;27;19932;-80
2023/03/13 09:09:09;;;;;;;;;;;21.60;46.90;;;;;;5094841;27;20492;-79
2023/03/13 09:11:35;;;;;;;;;;;21.60;46.40;;;;;;5094470;27;19963;-71
2023/03/13 09:14:01;;;;;;;;;;;21.60;46.60;;;;;;5097405;27;19928;-75
2023/03/13 09:16:28;;;;;;;;;;;21.50;46.30;;;;;;5095415;27;19940;-73
2023/03/13 09:18:54;;;;;;;;;;;21.60;46.60;;;;;;5099112;27;20556;-80
2023/03/13 09:21:21;;;;;;;;;;;21.50;47.00;;;;;;5097984;27;19930;-80
2023/03/13 09:23:47;;;;;;;;;;;21.40;46.60;;;;;;5097498;27;19927;-79
2023/03/13 09:26:13;;;;;;;;;;;21.40;46.60;;;;;;5103383;27;19945;-80
2023/03/13 09:28:40;;;;;;;;;;;21.30;46.50;;;;;;5118111;27;19928;-74
2023/03/13 09:33:54;;;;;;;;;;;21.30;46.70;;;;;;5055039;28;19927;-73
2023/03/13 09:36:20;;;;;;;;;;;21.30;47.20;;;;;;5052463;28;19929;-76
2023/03/13 09:38:46;;;;;;;;;;;21.30;47.30;;;;;;5054522;28;19936;-75
2023/03/13 09:41:31;;;;;;;;;;;21.30;47.00;;;;;;5072386;28;19924;-75
2023/03/13 09:44:16;;;;;;;;;;;21.30;47.00;;;;;;5053602;28;19925;-76
2023/03/13 09:46:45;;;;;;;;;;;21.20;47.40;;;;;;5055425;28;19921;-75
2023/03/13 09:52:13;;;;;;;;;;;21.00;48.40;;;;;;5067635;27;19957;-78
2023/03/13 09:54:42;;;;;;;;;;;21.10;48.60;;;;;;5102628;27;19932;-74
2023/03/13 09:59:56;;;;;;;;;;;21.20;48.20;;;;;;5086951;27;19926;-72
2023/03/13 10:05:05;;;;;;;;;;;21.30;48.30;;;;;;5083044;27;1943609;-78
2023/03/13 10:07:31;;;;;;;;;;;21.30;48.30;;;;;;5140104;27;19923;-74
2023/03/13 10:09:57;;;;;;;;;;;21.40;47.90;;;;;;5128782;27;20296;-82
2023/03/13 10:12:27;;;;;;;;;;;21.40;47.80;;;;;;5130735;27;19966;-75
2023/03/13 10:17:39;;;;;;;;;;;21.40;47.40;;;;;;5075188;27;19920;-74
2023/03/13 10:22:57;;;;;;;;;;;21.30;47.20;;;;;;5088096;27;19950;-77
2023/03/13 10:28:04;;;;;;;;;;;21.30;47.50;;;;;;5053932;28;19925;-75
2023/03/13 10:30:31;;;;;;;;;;;21.20;47.30;;;;;;5028473;28;19925;-76
2023/03/13 10:32:59;;;;;;;;;;;21.20;47.10;;;;;;5024912;28;19925;-77
2023/03/13 10:35:31;;;;;;;;;;;21.30;47.60;;;;;;5031010;28;19944;-81
2023/03/13 10:38:01;;;;;;;;;;;21.20;47.60;;;;;;5029590;28;19936;-74
2023/03/13 10:40:27;;;;;;;;;;;21.20;47.30;;;;;;5040638;28;20016;-86
2023/03/13 10:42:59;;;;;;;;;;;21.20;47.70;;;;;;5045628;28;20021;-75
2023/03/13 10:45:26;;;;;;;;;;;21.20;47.60;;;;;;5045953;28;20561;-79
2023/03/13 10:47:53;;;;;;;;;;;21.30;47.80;;;;;;5031930;28;19929;-83
2023/03/13 10:50:21;;;;;;;;;;;21.30;47.80;;;;;;5045390;28;19935;-76
2023/03/13 10:52:47;;;;;;;;;;;21.40;47.80;;;;;;5034647;28;20052;-77
2023/03/13 10:55:16;;;;;;;;;;;21.40;47.80;;;;;;5029719;28;19932;-74
2023/03/13 10:57:50;;;;;;;;;;;21.40;48.30;;;;;;5049632;28;19928;-73
2023/03/13 11:00:36;;;;;;;;;;;21.40;48.10;;;;;;5025740;28;19947;-72
2023/03/13 11:03:06;;;;;;;;;;;21.40;48.20;;;;;;5029724;28;19928;-73
2023/03/13 11:05:36;;;;;;;;;;;21.40;48.30;;;;;;5030044;28;20004;-77
2023/03/13 11:08:21;;;;;;;;;;;21.40;48.30;;;;;;5031806;28;19929;-69
2023/03/13 11:10:55;;;;;;;;;;;21.40;48.30;;;;;;5030654;28;20020;-74
2023/03/13 11:13:42;;;;;;;;;;;21.40;47.70;;;;;;5015178;28;20020;-73
2023/03/13 11:21:45;;;;;;;;;;;21.40;48.20;;;;;;5085842;27;19949;-76
2023/03/13 11:24:15;;;;;;;;;;;21.40;47.90;;;;;;5089538;28;20382;-76
2023/03/13 11:26:45;;;;;;;;;;;21.40;48.10;;;;;;5093079;28;19924;-75
2023/03/13 11:29:18;;;;;;;;;;;21.30;47.90;;;;;;5120800;27;19943;-76
2023/03/13 11:31:45;;;;;;;;;;;21.30;48.00;;;;;;5086171;28;19935;-76
2023/03/13 11:34:29;;;;;;;;;;;21.30;48.00;;;;;;5086054;28;19924;-72
2023/03/13 11:39:43;;;;;;;;;;;21.20;48.30;;;;;;5075640;27;19927;-73
2023/03/13 11:42:29;;;;;;;;;;;21.10;48.00;;;;;;5057334;28;20022;-72
2023/03/13 11:47:47;;;;;;;;;;;21.20;47.80;;;;;;5107305;27;19928;-71
2023/03/13 11:50:32;;;;;;;;;;;21.20;48.00;;;;;;5113412;28;19928;-69
2023/03/13 11:53:20;;;;;;;;;;;21.20;48.00;;;;;;5109194;28;19942;-73
2023/03/13 12:01:19;;;;;;;;;;;21.10;48.10;;;;;;5092929;27;1871367;-74
2023/03/13 12:04:05;;;;;;;;;;;21.20;48.00;;;;;;5143602;27;19927;-75
2023/03/13 12:06:49;;;;;;;;;;;21.10;48.40;;;;;;5138919;27;19926;-76
2023/03/13 12:09:22;;;;;;;;;;;21.20;48.50;;;;;;5122309;27;19923;-72
2023/03/13 12:17:35;;;;;;;;;;;21.10;48.10;;;;;;5097137;27;1864659;-73
2023/03/13 12:20:21;;;;;;;;;;;21.10;48.20;;;;;;5128099;27;20033;-74
2023/03/13 12:22:57;;;;;;;;;;;21.10;48.20;;;;;;5138973;27;19955;-73
2023/03/13 12:25:24;;;;;;;;;;;21.10;48.00;;;;;;5129582;27;20445;-73
2023/03/13 12:27:51;;;;;;;;;;;21.10;48.00;;;;;;5129986;27;20353;-73
2023/03/13 12:30:26;;;;;;;;;;;21.10;47.90;;;;;;5131687;27;20156;-74
2023/03/13 12:33:04;;;;;;;;;;;21.10;48.00;;;;;;5136959;27;20124;-74
2023/03/13 12:35:32;;;;;;;;;;;21.00;47.80;;;;;;5129975;27;20005;-72
2023/03/13 12:38:05;;;;;;;;;;;21.00;47.80;;;;;;5129404;27;20118;-71
2023/03/13 12:40:40;;;;;;;;;;;21.00;47.70;;;;;;5136476;27;19923;-72
2023/03/13 12:43:10;;;;;;;;;;;21.10;47.60;;;;;;5134618;27;19938;-72
2023/03/13 12:45:37;;;;;;;;;;;21.20;47.60;;;;;;5130788;27;19927;-72
2023/03/13 12:48:23;;;;;;;;;;;21.20;47.40;;;;;;5150827;27;20018;-73
2023/03/13 12:51:08;;;;;;;;;;;21.20;47.40;;;;;;5126167;27;20010;-74
2023/03/13 12:56:22;;;;;;;;;;;21.20;47.10;;;;;;5056565;28;20746;-69
2023/03/13 12:58:51;;;;;;;;;;;21.30;47.00;;;;;;5033152;28;19941;-73
2023/03/13 13:01:25;;;;;;;;;;;21.30;46.70;;;;;;5034306;28;19936;-72
2023/03/13 13:06:54;;;;;;;;;;;21.40;46.50;;;;;;5102845;27;19932;-75
2023/03/13 13:09:22;;;;;;;;;;;21.40;46.40;;;;;;5103759;28;19930;-67
2023/03/13 13:11:49;;;;;;;;;;;21.40;46.40;;;;;;5102571;28;19924;-67
2023/03/13 13:28:09;;;;;;;;;;;21.20;46.60;;;;;;5040468;28;19931;-68
2023/03/13 13:30:34;;;;;;;;;;;21.10;46.60;;;;;;5030175;28;19929;-67
2023/03/13 13:33:26;;;;;;;;;;;21.10;46.80;;;;;;5029251;28;19987;-70
2023/03/13 13:38:50;;;;;;;;;;;21.10;47.10;;;;;;5091530;27;19931;-68
2023/03/13 13:44:16;;;;;;;;;;;21.10;47.10;;;;;;5050032;28;19936;-69
2023/03/13 13:46:44;;;;;;;;;;;21.10;46.90;;;;;;5047107;28;20369;-69
2023/03/13 13:57:24;;;;;;;;;;;21.00;47.10;;;;;;5085773;27;20542;-70
2023/03/13 13:59:52;;;;;;;;;;;21.10;47.20;;;;;;5080495;28;20457;-72
2023/03/13 14:02:19;;;;;;;;;;;21.20;47.60;;;;;;5078557;28;19930;-74
2023/03/13 14:07:29;;;;;;;;;;;21.20;47.00;;;;;;5052096;27;1877083;-70
2023/03/13 14:10:14;;;;;;;;;;;21.20;47.10;;;;;;5100559;28;19927;-74
2023/03/13 14:12:45;;;;;;;;;;;21.20;46.70;;;;;;5100175;28;20290;-73
2023/03/13 14:15:13;;;;;;;;;;;21.30;46.70;;;;;;5121374;28;19927;-74
2023/03/13 14:17:42;;;;;;;;;;;21.40;46.50;;;;;;5073839;28;19970;-75
2023/03/13 14:20:27;;;;;;;;;;;21.30;46.30;;;;;;5105564;28;19920;-76
2023/03/13 14:22:54;;;;;;;;;;;21.30;46.30;;;;;;5096885;28;19927;-76
2023/03/13 14:25:21;;;;;;;;;;;21.30;46.50;;;;;;5102145;28;19988;-78
2023/03/13 14:27:47;;;;;;;;;;;21.30;46.40;;;;;;5092875;28;19984;-75
2023/03/13 14:30:14;;;;;;;;;;;21.20;46.30;;;;;;5098938;28;19923;-72
2023/03/13 14:32:39;;;;;;;;;;;21.30;46.50;;;;;;5102808;28;19924;-69
2023/03/13 14:35:06;;;;;;;;;;;21.30;46.60;;;;;;5100947;28;19930;-69
2023/03/13 14:37:48;;;;;;;;;;;21.30;46.50;;;;;;5123865;28;20386;-68
2023/03/13 14:43:01;;;;;;;;;;;21.30;46.10;;;;;;5105439;27;19919;-67
2023/03/13 14:45:35;;;;;;;;;;;21.30;46.00;;;;;;5105319;28;20010;-69
2023/03/13 14:50:41;;;;;;;;;;;21.20;46.20;;;;;;5081590;28;19923;-72
2023/03/13 14:53:11;;;;;;;;;;;21.30;46.20;;;;;;5064877;28;19924;-67
2023/03/13 14:55:39;;;;;;;;;;;21.30;46.40;;;;;;5053058;28;19924;-67
2023/03/13 14:58:23;;;;;;;;;;;21.30;46.30;;;;;;5064248;28;19925;-67
2023/03/13 15:00:49;;;;;;;;;;;21.30;46.40;;;;;;5093475;28;19982;-68
2023/03/13 15:12:03;;;;;;;;;;;21.30;46.40;;;;;;5084245;28;19954;-71
2023/03/13 15:17:16;;;;;;;;;;;21.30;46.60;;;;;;5104126;27;19935;-65
2023/03/13 15:19:59;;;;;;;;;;;21.30;46.80;;;;;;5091289;28;19924;-65
2023/03/13 15:22:27;;;;;;;;;;;21.20;46.70;;;;;;5095144;28;19928;-66
2023/03/13 15:24:52;;;;;;;;;;;21.20;46.60;;;;;;5073110;28;19928;-66
2023/03/13 15:27:19;;;;;;;;;;;21.20;46.60;;;;;;5075930;28;19938;-68
2023/03/13 15:29:45;;;;;;;;;;;21.20;46.70;;;;;;5072808;28;19986;-67
2023/03/13 15:32:17;;;;;;;;;;;21.20;46.60;;;;;;5078919;28;20387;-69
2023/03/13 15:34:43;;;;;;;;;;;21.20;46.70;;;;;;5084293;28;19928;-75
2023/03/13 15:37:10;;;;;;;;;;;21.10;46.60;;;;;;5068156;28;19936;-69
2023/03/13 15:39:36;;;;;;;;;;;21.10;46.60;;;;;;5067420;28;20005;-69
2023/03/13 15:42:01;;;;;;;;;;;21.00;46.50;;;;;;5072936;28;20013;-70
2023/03/13 15:44:27;;;;;;;;;;;21.00;46.50;;;;;;5087583;28;19928;-69
2023/03/13 15:46:52;;;;;;;;;;;20.90;46.40;;;;;;5093641;28;19981;-68
2023/03/13 15:49:18;;;;;;;;;;;20.90;46.50;;;;;;5074227;28;19990;-69
2023/03/13 15:51:43;;;;;;;;;;;20.80;46.50;;;;;;5066997;28;19924;-69
2023/03/13 15:54:09;;;;;;;;;;;20.80;46.50;;;;;;5078398;28;19920;-69
2023/03/13 15:56:36;;;;;;;;;;;20.70;46.50;;;;;;5073956;28;19931;-69
2023/03/13 15:59:08;;;;;;;;;;;20.70;47.40;;;;;;5080425;28;19920;-69
2023/03/13 16:01:33;;;;;;;;;;;20.60;46.70;;;;;;5081745;28;19920;-68
2023/03/13 16:03:59;;;;;;;;;;;20.60;47.20;;;;;;5080296;28;19931;-69
2023/03/13 16:06:30;;;;;;;;;;;20.60;47.50;;;;;;5072316;28;19920;-69